TimeCEST,TemperatureF,Dew PointF,Humidity,Sea Level PressureIn,VisibilityMPH,Wind Direction,Wind SpeedMPH,Gust SpeedMPH,PrecipitationIn,Events,Conditions,WindDirDegrees,DateUTC
2:00 AM,62,48,49,30.14,,NE,11.2,,,,,40,2013-05-06 00:00:00
4:45 AM,59.0,46.4,63,30.12,6.2,NE,9.2,-,N/A,,Mostly Cloudy,50,2013-05-06 02:45:00
5:15 AM,57.2,46.4,67,30.12,6.2,ENE,9.2,-,N/A,,Mostly Cloudy,60,2013-05-06 03:15:00
5:45 AM,57.2,46.4,67,30.12,-9999.0,NE,9.2,-,N/A,,Clear,50,2013-05-06 03:45:00
6:15 AM,57.2,48.2,72,30.12,-9999.0,NE,9.2,-,N/A,,Clear,50,2013-05-06 04:15:00
6:45 AM,59.0,50.0,72,30.12,-9999.0,NE,9.2,-,N/A,,Clear,50,2013-05-06 04:45:00
7:00 AM,-9999,-9999,N/A,-9999,-9999.0,ENE,9.2,-,N/A,Rain-Thunderstorm,Rain Showers,70,2013-05-06 05:00:00
7:15 AM,60.8,50.0,68,30.12,-9999.0,ENE,11.5,-,N/A,,Clear,60,2013-05-06 05:15:00
7:45 AM,64.4,51.8,64,30.12,-9999.0,ENE,9.2,-,N/A,,Clear,70,2013-05-06 05:45:00
8:00 AM,64,52,56,30.13,19,ENE,8.9,,,,Partly Cloudy,70,2013-05-06 06:00:00
8:15 AM,66.2,53.6,64,30.15,-9999.0,East,9.2,-,N/A,,Clear,80,2013-05-06 06:15:00
8:45 AM,68.0,55.4,64,30.12,-9999.0,East,6.9,-,N/A,,Clear,90,2013-05-06 06:45:00
9:15 AM,69.8,55.4,60,30.15,-9999.0,East,6.9,-,N/A,,Clear,90,2013-05-06 07:15:00
9:45 AM,71.6,55.4,57,30.12,-9999.0,East,5.8,-,N/A,,Clear,80,2013-05-06 07:45:00
10:00 AM,-9999,-9999,N/A,-9999,3.1,East,5.8,-,N/A,Rain-Thunderstorm,Rain Showers,80,2013-05-06 08:00:00
10:15 AM,75.2,57.2,53,30.15,-9999.0,East,5.8,-,N/A,,Clear,80,2013-05-06 08:15:00
10:45 AM,75.2,55.4,50,30.12,-9999.0,East,4.6,-,N/A,,Clear,80,2013-05-06 08:45:00
11:15 AM,77.0,57.2,50,30.15,6.2,East,2.3,-,N/A,,Overcast,90,2013-05-06 09:15:00
11:45 AM,77.0,53.6,44,30.12,6.2,ENE,3.5,-,N/A,,Overcast,70,2013-05-06 09:45:00
12:15 PM,78.8,55.4,44,30.12,6.2,North,3.5,-,N/A,,Overcast,350,2013-05-06 10:15:00
12:45 PM,78.8,57.2,47,30.12,6.2,ENE,2.3,-,N/A,,Overcast,70,2013-05-06 10:45:00
1:00 PM,-9999,-9999,N/A,-9999,3.1,East,5.8,-,N/A,Rain-Thunderstorm,Rain Showers,80,2013-05-06 11:00:00
1:15 PM,80.6,55.4,42,30.12,-9999.0,North,3.5,-,N/A,,Clear,10,2013-05-06 11:15:00
1:45 PM,80.6,53.6,39,30.12,-9999.0,West,2.3,-,N/A,,Clear,270,2013-05-06 11:45:00
2:00 PM,80,54,30,30.10,19,West,2.2,,,,Partly Cloudy,270,2013-05-06 12:00:00
2:15 PM,82.4,57.2,42,30.12,-9999.0,West,2.3,-,N/A,,Clear,260,2013-05-06 12:15:00
2:45 PM,82.4,53.6,37,30.09,-9999.0,WSW,3.5,-,N/A,,Clear,250,2013-05-06 12:45:00
3:45 PM,80.6,53.6,39,30.06,-9999.0,ENE,5.8,-,N/A,,Clear,60,2013-05-06 13:45:00
4:15 PM,80.6,53.6,39,30.06,-9999.0,ESE,4.6,-,N/A,,Clear,110,2013-05-06 14:15:00
4:45 PM,80.6,53.6,39,30.06,-9999.0,Calm,Calm,-,N/A,,Clear,0,2013-05-06 14:45:00
5:15 PM,78.8,55.4,44,30.06,-9999.0,East,4.6,-,N/A,,Clear,80,2013-05-06 15:15:00
5:45 PM,78.8,53.6,42,30.06,-9999.0,North,2.3,-,N/A,,Clear,360,2013-05-06 15:45:00
6:15 PM,73.4,57.2,57,30.06,6.2,NW,12.7,-,N/A,,Mostly Cloudy,310,2013-05-06 16:15:00
6:45 PM,71.6,57.2,60,30.06,6.2,NNW,10.4,-,N/A,,Overcast,330,2013-05-06 16:45:00
7:15 PM,71.6,57.2,60,30.06,6.2,North,10.4,-,N/A,,Mostly Cloudy,360,2013-05-06 17:15:00
7:45 PM,71.6,57.2,60,30.06,6.2,North,8.1,-,N/A,,Mostly Cloudy,360,2013-05-06 17:45:00
8:00 PM,71,56,50,30.04,19,North,8.9,,,,Partly Cloudy,0,2013-05-06 18:00:00
8:15 PM,71.6,55.4,57,30.04,6.2,North,9.2,-,N/A,,Mostly Cloudy,10,2013-05-06 18:15:00
8:45 PM,71.6,55.4,57,30.06,6.2,North,10.4,-,N/A,,Mostly Cloudy,10,2013-05-06 18:45:00